Terminal Aerodrome Forecast
Issued by NWS

Home | Current Version | Previous Version | Text Only | Print | Product List | Glossary On
Versions: 1 2 3 4 5 6 7 8 9 10 11 12 13 14 15 16 17 18 19 20 21 22 23 24 25 26 27 28 29 30 31 32 33 34
000
FTUS44 KLZK 161125 CCA
TAFLIT
TAF COR
KLIT 161125Z 1612/1712 21010KT P6SM VCSH OVC015
     FM161500 22010G17KT P6SM VCTS BKN040CB OVC070
      TEMPO 1615/1619 TSRA OVC040CB
     FM170000 22010KT P6SM VCSH OVC050
     FM170600 19005KT P6SM -RA VCTS OVC025CB=

USA.gov is the U.S. government's official web portal to all federal, state and local government web resources and services.